Saint Edward, Nebraska
Current Conditions -  °F | °C
As of 10:55 AM on Saturday 22 Nov 2014 (Local Time) from KBVN Reporting Station
Clear Clear  
Wind Chill: 35°   Ceiling: Unl
Heat Index: 40°   Visibility: 10mi
Dew Point: 33°   Wind: 7mph
Humidity: 76%   Direction: 160°SSE
Pressure: 29.73"   Gusts: NA
Location:  41.57°N, 97.87°W
Report Text: KBVN 221655Z AUTO 16006KT 10SM CLR 04/01 A2973 RMK AO2 LTG DSNT S T00440005
Loading
Personal Weather Stations






























Interactive Weather Map New forecast layout! Learn more

10-Day Weather Forecast

Advertisements
Track Severe Weather on mobile